sensor_id;sensor_type;location;lat;lon;timestamp;pressure;altitude;pressure_sealevel;temperature;humidity
48035;BME280;33812;46.480;6.834;2023-01-29T00:02:03;94109.25;;;19.11;29.81
48035;BME280;33812;46.480;6.834;2023-01-29T00:06:07;94114.00;;;19.10;30.02
48035;BME280;33812;46.480;6.834;2023-01-29T00:10:10;94112.00;;;19.11;30.19
48035;BME280;33812;46.480;6.834;2023-01-29T00:14:13;94109.25;;;19.11;29.82
48035;BME280;33812;46.480;6.834;2023-01-29T00:18:15;94107.69;;;19.09;30.06
48035;BME280;33812;46.480;6.834;2023-01-29T00:22:18;94109.25;;;19.11;29.98
48035;BME280;33812;46.480;6.834;2023-01-29T00:26:20;94110.84;;;19.12;29.88
48035;BME280;33812;46.480;6.834;2023-01-29T00:30:21;94103.72;;;19.11;30.00
48035;BME280;33812;46.480;6.834;2023-01-29T00:34:24;94099.44;;;19.09;29.61
48035;BME280;33812;46.480;6.834;2023-01-29T00:38:27;94095.88;;;19.09;29.66
48035;BME280;33812;46.480;6.834;2023-01-29T00:42:29;94106.16;;;19.08;29.84
48035;BME280;33812;46.480;6.834;2023-01-29T00:46:48;94106.16;;;19.08;29.66
48035;BME280;33812;46.480;6.834;2023-01-29T00:50:50;94097.09;;;19.08;30.26
48035;BME280;33812;46.480;6.834;2023-01-29T00:54:54;94107.31;;;19.07;29.82
48035;BME280;33812;46.480;6.834;2023-01-29T00:58:57;94100.25;;;19.06;29.81
48035;BME280;33812;46.480;6.834;2023-01-29T01:02:59;94101.06;;;19.07;29.59
48035;BME280;33812;46.480;6.834;2023-01-29T01:07:06;94107.75;;;19.06;30.04
48035;BME280;33812;46.480;6.834;2023-01-29T01:11:10;94098.69;;;19.05;30.07
48035;BME280;33812;46.480;6.834;2023-01-29T01:15:12;94110.06;;;19.07;29.67
48035;BME280;33812;46.480;6.834;2023-01-29T01:19:15;94111.69;;;19.05;29.94
48035;BME280;33812;46.480;6.834;2023-01-29T01:23:17;94117.63;;;19.03;29.61
48035;BME280;33812;46.480;6.834;2023-01-29T01:27:21;94123.91;;;19.04;29.54
48035;BME280;33812;46.480;6.834;2023-01-29T01:31:22;94129.00;;;19.05;30.00
48035;BME280;33812;46.480;6.834;2023-01-29T01:35:24;94135.28;;;19.06;29.80
48035;BME280;33812;46.480;6.834;2023-01-29T01:39:26;94132.94;;;19.04;29.92
48035;BME280;33812;46.480;6.834;2023-01-29T01:43:48;94133.75;;;19.05;29.62
48035;BME280;33812;46.480;6.834;2023-01-29T01:47:52;94141.63;;;19.03;29.46
48035;BME280;33812;46.480;6.834;2023-01-29T01:51:55;94134.91;;;19.04;29.64
48035;BME280;33812;46.480;6.834;2023-01-29T01:55:59;94138.47;;;19.04;29.31
48035;BME280;33812;46.480;6.834;2023-01-29T02:00:08;94145.53;;;19.05;29.40
48035;BME280;33812;46.480;6.834;2023-01-29T02:04:13;94140.09;;;19.02;29.80
48035;BME280;33812;46.480;6.834;2023-01-29T02:08:44;94144.38;;;19.03;29.66
48035;BME280;33812;46.480;6.834;2023-01-29T02:13:06;94147.16;;;19.03;29.64
48035;BME280;33812;46.480;6.834;2023-01-29T02:17:11;94156.63;;;19.02;29.59
48035;BME280;33812;46.480;6.834;2023-01-29T02:21:31;94166.44;;;19.03;29.50
48035;BME280;33812;46.480;6.834;2023-01-29T02:25:49;94173.91;;;19.02;29.47
48035;BME280;33812;46.480;6.834;2023-01-29T02:30:01;94182.16;;;19.02;29.58
48035;BME280;33812;46.480;6.834;2023-01-29T02:34:10;94188.88;;;19.01;29.27
48035;BME280;33812;46.480;6.834;2023-01-29T02:38:20;94194.38;;;19.01;29.54
48035;BME280;33812;46.480;6.834;2023-01-29T02:42:27;94197.56;;;19.00;29.19
48035;BME280;33812;46.480;6.834;2023-01-29T02:46:36;94196.34;;;19.01;29.26
48035;BME280;33812;46.480;6.834;2023-01-29T02:50:42;94192.06;;;19.00;29.64
48035;BME280;33812;46.480;6.834;2023-01-29T02:54:50;94199.09;;;19.01;29.50
48035;BME280;33812;46.480;6.834;2023-01-29T02:58:58;94198.31;;;19.00;29.60
48035;BME280;33812;46.480;6.834;2023-01-29T03:03:07;94190.47;;;18.99;29.50
48035;BME280;33812;46.480;6.834;2023-01-29T03:07:15;94199.16;;;18.97;29.74
48035;BME280;33812;46.480;6.834;2023-01-29T03:11:41;94203.13;;;18.96;29.35
48035;BME280;33812;46.480;6.834;2023-01-29T03:15:46;94200.72;;;18.98;29.71
48035;BME280;33812;46.480;6.834;2023-01-29T03:19:53;94209.00;;;18.98;29.55
48035;BME280;33812;46.480;6.834;2023-01-29T03:23:55;94215.69;;;18.97;29.76
48035;BME280;33812;46.480;6.834;2023-01-29T03:28:17;94209.41;;;18.96;29.39
48035;BME280;33812;46.480;6.834;2023-01-29T03:32:37;94208.59;;;19.00;29.37
48035;BME280;33812;46.480;6.834;2023-01-29T03:36:45;94205.44;;;18.97;29.64
48035;BME280;33812;46.480;6.834;2023-01-29T03:40:56;94197.59;;;18.96;29.44
48035;BME280;33812;46.480;6.834;2023-01-29T03:45:05;94201.50;;;18.99;29.34
48035;BME280;33812;46.480;6.834;2023-01-29T03:49:14;94208.22;;;18.97;29.53
48035;BME280;33812;46.480;6.834;2023-01-29T03:53:24;94207.00;;;18.99;29.18
48035;BME280;33812;46.480;6.834;2023-01-29T03:57:32;94200.72;;;18.98;29.00
48035;BME280;33812;46.480;6.834;2023-01-29T04:01:39;94203.50;;;18.98;29.25
48035;BME280;33812;46.480;6.834;2023-01-29T04:05:45;94205.88;;;18.96;29.35
48035;BME280;33812;46.480;6.834;2023-01-29T04:09:53;94212.16;;;18.96;29.12
48035;BME280;33812;46.480;6.834;2023-01-29T04:13:57;94207.84;;;18.95;29.52
48035;BME280;33812;46.480;6.834;2023-01-29T04:17:59;94212.50;;;18.99;29.11
48035;BME280;33812;46.480;6.834;2023-01-29T04:22:05;94203.13;;;18.96;29.23
48035;BME280;33812;46.480;6.834;2023-01-29T04:26:32;94197.59;;;18.96;29.09
48035;BME280;33812;46.480;6.834;2023-01-29T04:30:45;94213.34;;;18.95;29.11
48035;BME280;33812;46.480;6.834;2023-01-29T04:34:58;94208.63;;;18.96;29.21
48035;BME280;33812;46.480;6.834;2023-01-29T04:39:09;94205.88;;;18.96;29.37
48035;BME280;33812;46.480;6.834;2023-01-29T04:43:20;94209.75;;;18.99;29.58
48035;BME280;33812;46.480;6.834;2023-01-29T04:47:33;94210.16;;;18.97;29.48
48035;BME280;33812;46.480;6.834;2023-01-29T04:51:42;94208.25;;;18.94;29.59
48035;BME280;33812;46.480;6.834;2023-01-29T04:55:48;94207.88;;;18.92;29.51
48035;BME280;33812;46.480;6.834;2023-01-29T04:59:58;94211.00;;;18.94;29.44
48035;BME280;33812;46.480;6.834;2023-01-29T05:04:04;94215.72;;;18.93;29.20
48035;BME280;33812;46.480;6.834;2023-01-29T05:08:10;94208.25;;;18.94;29.30
48035;BME280;33812;46.480;6.834;2023-01-29T05:12:14;94212.56;;;18.95;29.64
48035;BME280;33812;46.480;6.834;2023-01-29T05:16:22;94213.38;;;18.92;29.59
48035;BME280;33812;46.480;6.834;2023-01-29T05:20:25;94207.88;;;18.92;29.61
48035;BME280;33812;46.480;6.834;2023-01-29T05:24:27;94218.91;;;18.92;29.26
48035;BME280;33812;46.480;6.834;2023-01-29T05:28:28;94224.03;;;18.90;29.08
48035;BME280;33812;46.480;6.834;2023-01-29T05:32:32;94227.56;;;18.90;29.19
48035;BME280;33812;46.480;6.834;2023-01-29T05:36:34;94236.63;;;18.91;29.11
48035;BME280;33812;46.480;6.834;2023-01-29T05:40:36;94243.31;;;18.90;29.45
48035;BME280;33812;46.480;6.834;2023-01-29T05:44:38;94249.59;;;18.90;29.44
48035;BME280;33812;46.480;6.834;2023-01-29T05:48:41;94257.44;;;18.92;29.20
48035;BME280;33812;46.480;6.834;2023-01-29T05:52:42;94262.16;;;18.91;29.20
48035;BME280;33812;46.480;6.834;2023-01-29T05:56:44;94274.38;;;18.90;29.41
48035;BME280;33812;46.480;6.834;2023-01-29T06:00:46;94287.38;;;18.90;29.18
48035;BME280;33812;46.480;6.834;2023-01-29T06:04:49;94285.81;;;18.89;29.23
48035;BME280;33812;46.480;6.834;2023-01-29T06:08:51;94296.00;;;18.92;28.95
48035;BME280;33812;46.480;6.834;2023-01-29T06:12:53;94290.13;;;18.90;29.40
48035;BME280;33812;46.480;6.834;2023-01-29T06:16:54;94297.22;;;18.91;29.04
48035;BME280;33812;46.480;6.834;2023-01-29T06:21:00;94305.47;;;18.91;29.24
48035;BME280;33812;46.480;6.834;2023-01-29T06:25:03;94297.22;;;18.91;28.96
48035;BME280;33812;46.480;6.834;2023-01-29T06:29:05;94302.72;;;18.91;28.85
48035;BME280;33812;46.480;6.834;2023-01-29T06:33:07;94302.31;;;18.92;28.99
48035;BME280;33812;46.480;6.834;2023-01-29T06:37:10;94310.56;;;18.92;28.94
48035;BME280;33812;46.480;6.834;2023-01-29T06:41:14;94322.75;;;18.91;28.99
48035;BME280;33812;46.480;6.834;2023-01-29T06:45:16;94325.91;;;18.93;29.25
48035;BME280;33812;46.480;6.834;2023-01-29T06:49:19;94338.50;;;18.94;29.10
48035;BME280;33812;46.480;6.834;2023-01-29T06:53:22;94345.97;;;18.94;28.85
48035;BME280;33812;46.480;6.834;2023-01-29T06:57:27;94347.16;;;18.93;28.92
48035;BME280;33812;46.480;6.834;2023-01-29T07:01:29;94359.38;;;18.92;29.04
48035;BME280;33812;46.480;6.834;2023-01-29T07:05:30;94348.72;;;18.94;29.39
48035;BME280;33812;46.480;6.834;2023-01-29T07:09:33;94351.88;;;18.92;29.14
48035;BME280;33812;46.480;6.834;2023-01-29T07:13:35;94349.47;;;18.98;29.65
48035;BME280;33812;46.480;6.834;2023-01-29T07:17:37;94356.53;;;18.99;30.02
48035;BME280;33812;46.480;6.834;2023-01-29T07:21:39;94362.09;;;18.95;29.90
48035;BME280;33812;46.480;6.834;2023-01-29T07:25:43;94361.66;;;18.97;30.31
48035;BME280;33812;46.480;6.834;2023-01-29T07:29:45;94368.78;;;18.94;30.30
48035;BME280;33812;46.480;6.834;2023-01-29T07:33:47;94360.50;;;18.98;30.04
48035;BME280;33812;46.480;6.834;2023-01-29T07:37:50;94353.81;;;18.95;30.09
48035;BME280;33812;46.480;6.834;2023-01-29T07:41:54;94360.91;;;18.96;29.91
48035;BME280;33812;46.480;6.834;2023-01-29T07:45:55;94356.94;;;18.97;29.52
48035;BME280;33812;46.480;6.834;2023-01-29T07:50:02;94358.91;;;18.97;29.39
48035;BME280;33812;46.480;6.834;2023-01-29T07:54:03;94349.47;;;18.98;29.89
48035;BME280;33812;46.480;6.834;2023-01-29T07:58:07;94347.94;;;18.93;29.99
48035;BME280;33812;46.480;6.834;2023-01-29T08:02:09;94346.31;;;19.00;29.94
48035;BME280;33812;46.480;6.834;2023-01-29T08:06:13;94345.50;;;19.03;29.76
48035;BME280;33812;46.480;6.834;2023-01-29T08:10:15;94352.97;;;19.02;29.78
48035;BME280;33812;46.480;6.834;2023-01-29T08:14:18;94348.63;;;19.05;29.37
48035;BME280;33812;46.480;6.834;2023-01-29T08:18:20;94340.75;;;19.03;29.50
48035;BME280;33812;46.480;6.834;2023-01-29T08:22:22;94356.06;;;19.08;29.46
48035;BME280;33812;46.480;6.834;2023-01-29T08:26:24;94356.84;;;19.08;29.46
48035;BME280;33812;46.480;6.834;2023-01-29T08:30:30;94365.88;;;19.13;29.46
48035;BME280;33812;46.480;6.834;2023-01-29T08:34:31;94356.44;;;19.14;29.27
48035;BME280;33812;46.480;6.834;2023-01-29T08:38:33;94372.53;;;19.15;30.04
48035;BME280;33812;46.480;6.834;2023-01-29T08:42:35;94366.63;;;19.17;29.50
48035;BME280;33812;46.480;6.834;2023-01-29T08:46:38;94361.91;;;19.17;29.56
48035;BME280;33812;46.480;6.834;2023-01-29T08:50:40;94363.41;;;19.22;29.56
48035;BME280;33812;46.480;6.834;2023-01-29T08:54:42;94374.44;;;19.22;29.70
48035;BME280;33812;46.480;6.834;2023-01-29T08:58:43;94377.56;;;19.24;29.54
48035;BME280;33812;46.480;6.834;2023-01-29T09:02:46;94379.88;;;19.29;29.50
48035;BME280;33812;46.480;6.834;2023-01-29T09:06:48;94383.34;;;19.33;29.96
48035;BME280;33812;46.480;6.834;2023-01-29T09:10:50;94386.06;;;19.37;29.58
48035;BME280;33812;46.480;6.834;2023-01-29T09:14:51;94385.25;;;19.40;29.92
48035;BME280;33812;46.480;6.834;2023-01-29T09:18:55;94374.63;;;19.39;29.90
48035;BME280;33812;46.480;6.834;2023-01-29T09:22:56;94388.38;;;19.42;29.62
48035;BME280;33812;46.480;6.834;2023-01-29T09:26:58;94386.06;;;19.37;29.39
48035;BME280;33812;46.480;6.834;2023-01-29T09:31:00;94376.63;;;19.38;29.64
48035;BME280;33812;46.480;6.834;2023-01-29T09:35:05;94391.09;;;19.46;29.89
48035;BME280;33812;46.480;6.834;2023-01-29T09:39:07;94386.34;;;19.50;29.97
48035;BME280;33812;46.480;6.834;2023-01-29T09:43:12;94394.19;;;19.52;29.73
48035;BME280;33812;46.480;6.834;2023-01-29T09:47:16;94408.31;;;19.57;29.75
48035;BME280;33812;46.480;6.834;2023-01-29T09:51:24;94402.38;;;19.59;29.74
48035;BME280;33812;46.480;6.834;2023-01-29T09:55:30;94416.47;;;19.65;29.31
48035;BME280;33812;46.480;6.834;2023-01-29T09:59:34;94420.81;;;19.66;29.58
48035;BME280;33812;46.480;6.834;2023-01-29T10:03:47;94420.38;;;19.67;29.22
48035;BME280;33812;46.480;6.834;2023-01-29T10:08:08;94430.19;;;19.72;29.42
48035;BME280;33812;46.480;6.834;2023-01-29T10:12:25;94440.75;;;19.77;29.38
48035;BME280;33812;46.480;6.834;2023-01-29T10:16:43;94445.84;;;19.79;29.26
48035;BME280;33812;46.480;6.834;2023-01-29T10:20:57;94444.72;;;19.76;29.15
48035;BME280;33812;46.480;6.834;2023-01-29T10:25:10;94447.03;;;19.81;29.32
48035;BME280;33812;46.480;6.834;2023-01-29T10:29:17;94444.25;;;19.81;29.16
48035;BME280;33812;46.480;6.834;2023-01-29T10:33:26;94446.59;;;19.83;29.09
48035;BME280;33812;46.480;6.834;2023-01-29T10:37:35;94450.19;;;19.80;29.10
48035;BME280;33812;46.480;6.834;2023-01-29T10:41:49;94444.69;;;19.80;29.13
48035;BME280;33812;46.480;6.834;2023-01-29T10:46:01;94448.69;;;19.75;29.44
48035;BME280;33812;46.480;6.834;2023-01-29T10:50:16;94454.22;;;19.72;29.16
48035;BME280;33812;46.480;6.834;2023-01-29T10:54:29;94449.53;;;19.68;28.83
48035;BME280;33812;46.480;6.834;2023-01-29T10:58:41;94446.41;;;19.66;28.76
48035;BME280;33812;46.480;6.834;2023-01-29T11:02:47;94451.13;;;19.66;29.01
48035;BME280;33812;46.480;6.834;2023-01-29T11:06:49;94435.44;;;19.63;29.07
48035;BME280;33812;46.480;6.834;2023-01-29T11:10:53;94443.69;;;19.63;28.71
48035;BME280;33812;46.480;6.834;2023-01-29T11:15:03;94437.34;;;19.66;29.01
48035;BME280;33812;46.480;6.834;2023-01-29T11:19:06;94436.06;;;19.74;28.54
48035;BME280;33812;46.480;6.834;2023-01-29T11:23:24;94429.72;;;19.77;28.82
48035;BME280;33812;46.480;6.834;2023-01-29T11:27:26;94433.66;;;19.80;28.59
48035;BME280;33812;46.480;6.834;2023-01-29T11:31:36;94435.94;;;19.85;28.61
48035;BME280;33812;46.480;6.834;2023-01-29T11:35:38;94432.34;;;19.88;28.50
48035;BME280;33812;46.480;6.834;2023-01-29T11:39:42;94434.31;;;19.88;28.65
48035;BME280;33812;46.480;6.834;2023-01-29T11:43:46;94434.69;;;19.90;28.79
48035;BME280;33812;46.480;6.834;2023-01-29T11:47:52;94424.06;;;19.88;28.74
48035;BME280;33812;46.480;6.834;2023-01-29T11:51:54;94418.50;;;19.92;28.76
48035;BME280;33812;46.480;6.834;2023-01-29T11:55:57;94417.31;;;19.93;28.74
48035;BME280;33812;46.480;6.834;2023-01-29T12:00:02;94411.41;;;19.95;28.60
48035;BME280;33812;46.480;6.834;2023-01-29T12:04:15;94412.13;;;19.99;28.79
48035;BME280;33812;46.480;6.834;2023-01-29T12:08:19;94407.34;;;20.03;28.84
48035;BME280;33812;46.480;6.834;2023-01-29T12:12:28;94401.03;;;20.02;28.89
48035;BME280;33812;46.480;6.834;2023-01-29T12:16:32;94395.50;;;20.06;28.56
48035;BME280;33812;46.480;6.834;2023-01-29T12:20:41;94391.13;;;20.09;28.60
48035;BME280;33812;46.480;6.834;2023-01-29T12:24:48;94391.53;;;20.07;29.17
48035;BME280;33812;46.480;6.834;2023-01-29T12:29:02;94389.94;;;20.10;29.24
48035;BME280;33812;46.480;6.834;2023-01-29T12:33:12;94372.16;;;20.11;29.32
48035;BME280;33812;46.480;6.834;2023-01-29T12:37:22;94365.47;;;20.12;28.74
48035;BME280;33812;46.480;6.834;2023-01-29T12:41:32;94374.09;;;20.14;28.95
48035;BME280;33812;46.480;6.834;2023-01-29T12:45:37;94357.13;;;20.15;29.30
48035;BME280;33812;46.480;6.834;2023-01-29T12:49:41;94355.94;;;20.16;29.05
48035;BME280;33812;46.480;6.834;2023-01-29T12:53:49;94353.59;;;20.15;29.25
48035;BME280;33812;46.480;6.834;2023-01-29T12:57:56;94354.31;;;20.19;29.21
48035;BME280;33812;46.480;6.834;2023-01-29T13:02:05;94348.03;;;20.19;28.89
48035;BME280;33812;46.480;6.834;2023-01-29T13:06:14;94347.97;;;20.22;29.00
48035;BME280;33812;46.480;6.834;2023-01-29T13:10:22;94338.47;;;20.23;28.95
48035;BME280;33812;46.480;6.834;2023-01-29T13:14:32;94333.38;;;20.22;28.99
48035;BME280;33812;46.480;6.834;2023-01-29T13:18:43;94339.63;;;20.26;28.64
48035;BME280;33812;46.480;6.834;2023-01-29T13:22:47;94336.88;;;20.26;28.71
48035;BME280;33812;46.480;6.834;2023-01-29T13:26:52;94336.88;;;20.26;29.04
48035;BME280;33812;46.480;6.834;2023-01-29T13:31:12;94332.84;;;20.31;28.87
48035;BME280;33812;46.480;6.834;2023-01-29T13:35:17;94345.91;;;20.26;28.98
48035;BME280;33812;46.480;6.834;2023-01-29T13:39:24;94345.09;;;20.29;29.36
48035;BME280;33812;46.480;6.834;2023-01-29T13:43:33;94349.03;;;20.28;29.11
48035;BME280;33812;46.480;6.834;2023-01-29T13:47:37;94347.84;;;20.29;29.26
48035;BME280;33812;46.480;6.834;2023-01-29T13:51:40;94348.63;;;20.30;28.92
48035;BME280;33812;46.480;6.834;2023-01-29T13:55:42;94350.19;;;20.31;29.10
48035;BME280;33812;46.480;6.834;2023-01-29T13:59:52;94349.78;;;20.33;29.07
48035;BME280;33812;46.480;6.834;2023-01-29T14:03:55;94347.84;;;20.29;29.04
48035;BME280;33812;46.480;6.834;2023-01-29T14:07:58;94350.25;;;20.27;29.08
48035;BME280;33812;46.480;6.834;2023-01-29T14:12:00;94350.63;;;20.29;28.68
48035;BME280;33812;46.480;6.834;2023-01-29T14:16:33;94352.22;;;20.27;29.05
48035;BME280;33812;46.480;6.834;2023-01-29T14:20:38;94348.69;;;20.26;29.05
48035;BME280;33812;46.480;6.834;2023-01-29T14:24:42;94359.72;;;20.26;28.79
48035;BME280;33812;46.480;6.834;2023-01-29T14:28:52;94355.78;;;20.27;28.67
48035;BME280;33812;46.480;6.834;2023-01-29T14:32:55;94351.09;;;20.24;28.88
48035;BME280;33812;46.480;6.834;2023-01-29T14:37:01;94354.66;;;20.21;28.85
48035;BME280;33812;46.480;6.834;2023-01-29T14:41:11;94358.25;;;20.18;28.53
48035;BME280;33812;46.480;6.834;2023-01-29T14:45:22;94362.25;;;20.17;28.59
48035;BME280;33812;46.480;6.834;2023-01-29T14:49:51;94367.75;;;20.17;28.94
48035;BME280;33812;46.480;6.834;2023-01-29T14:53:58;94371.75;;;20.12;28.96
48035;BME280;33812;46.480;6.834;2023-01-29T14:58:02;94372.59;;;20.09;29.09
48035;BME280;33812;46.480;6.834;2023-01-29T15:02:13;94376.13;;;20.10;29.11
48035;BME280;33812;46.480;6.834;2023-01-29T15:06:24;94377.69;;;20.11;29.23
48035;BME280;33812;46.480;6.834;2023-01-29T15:10:36;94378.47;;;20.11;29.02
48035;BME280;33812;46.480;6.834;2023-01-29T15:14:44;94372.25;;;20.03;29.57
48035;BME280;33812;46.480;6.834;2023-01-29T15:18:51;94369.91;;;20.02;29.24
48035;BME280;33812;46.480;6.834;2023-01-29T15:22:54;94371.53;;;19.99;29.62
48035;BME280;33812;46.480;6.834;2023-01-29T15:26:56;94367.13;;;20.02;29.23
48035;BME280;33812;46.480;6.834;2023-01-29T15:31:00;94369.56;;;20.00;29.08
48035;BME280;33812;46.480;6.834;2023-01-29T15:35:07;94354.97;;;19.99;29.32
48035;BME280;33812;46.480;6.834;2023-01-29T15:39:21;94360.13;;;19.97;28.80
48035;BME280;33812;46.480;6.834;2023-01-29T15:43:24;94349.50;;;19.96;29.17
48035;BME280;33812;46.480;6.834;2023-01-29T15:47:29;94353.06;;;19.96;28.85
48035;BME280;33812;46.480;6.834;2023-01-29T15:51:32;94350.72;;;19.95;28.97
48035;BME280;33812;46.480;6.834;2023-01-29T15:55:35;94355.84;;;19.92;29.05
48035;BME280;33812;46.480;6.834;2023-01-29T15:59:43;94354.59;;;19.97;29.25
48035;BME280;33812;46.480;6.834;2023-01-29T16:03:48;94354.69;;;19.90;29.08
48035;BME280;33812;46.480;6.834;2023-01-29T16:07:50;94364.53;;;19.91;29.27
48035;BME280;33812;46.480;6.834;2023-01-29T16:11:56;94365.72;;;19.90;28.46
48035;BME280;33812;46.480;6.834;2023-01-29T16:16:01;94373.63;;;19.88;28.71
48035;BME280;33812;46.480;6.834;2023-01-29T16:20:06;94369.69;;;19.89;28.65
48035;BME280;33812;46.480;6.834;2023-01-29T16:24:09;94373.28;;;19.86;28.84
48035;BME280;33812;46.480;6.834;2023-01-29T16:28:14;94377.19;;;19.88;28.77
48035;BME280;33812;46.480;6.834;2023-01-29T16:32:18;94370.91;;;19.84;29.05
48035;BME280;33812;46.480;6.834;2023-01-29T16:36:23;94377.66;;;19.83;28.64
48035;BME280;33812;46.480;6.834;2023-01-29T16:40:27;94384.78;;;19.80;28.88
48035;BME280;33812;46.480;6.834;2023-01-29T16:44:34;94384.78;;;19.80;29.13
48035;BME280;33812;46.480;6.834;2023-01-29T16:48:36;94381.59;;;19.82;29.10
48035;BME280;33812;46.480;6.834;2023-01-29T16:52:38;94388.72;;;19.79;29.01
48035;BME280;33812;46.480;6.834;2023-01-29T16:56:43;94382.06;;;19.77;29.17
48035;BME280;33812;46.480;6.834;2023-01-29T17:00:46;94384.84;;;19.77;29.31
48035;BME280;33812;46.480;6.834;2023-01-29T17:04:50;94390.75;;;19.75;29.20
48035;BME280;33812;46.480;6.834;2023-01-29T17:08:54;94394.69;;;19.74;28.74
48035;BME280;33812;46.480;6.834;2023-01-29T17:12:57;94388.47;;;19.70;29.07
48035;BME280;33812;46.480;6.834;2023-01-29T17:17:03;94394.03;;;19.66;28.86
48035;BME280;33812;46.480;6.834;2023-01-29T17:21:05;94396.00;;;19.66;28.65
48035;BME280;33812;46.480;6.834;2023-01-29T17:25:08;94388.13;;;19.64;28.82
48035;BME280;33812;46.480;6.834;2023-01-29T17:29:14;94398.38;;;19.64;28.77
48035;BME280;33812;46.480;6.834;2023-01-29T17:33:19;94404.72;;;19.61;28.64
48035;BME280;33812;46.480;6.834;2023-01-29T17:37:22;94400.38;;;19.60;28.91
48035;BME280;33812;46.480;6.834;2023-01-29T17:41:26;94410.22;;;19.61;28.58
48035;BME280;33812;46.480;6.834;2023-01-29T17:45:28;94411.75;;;19.65;31.37
48035;BME280;33812;46.480;6.834;2023-01-29T17:49:31;94410.56;;;19.66;32.51
48035;BME280;33812;46.480;6.834;2023-01-29T17:53:32;94414.47;;;19.69;32.04
48035;BME280;33812;46.480;6.834;2023-01-29T17:57:34;94421.94;;;19.68;31.64
48035;BME280;33812;46.480;6.834;2023-01-29T18:01:37;94423.53;;;19.69;32.78
48035;BME280;33812;46.480;6.834;2023-01-29T18:05:40;94431.84;;;19.66;32.83
48035;BME280;33812;46.480;6.834;2023-01-29T18:09:42;94427.13;;;19.66;32.79
48035;BME280;33812;46.480;6.834;2023-01-29T18:13:44;94429.09;;;19.66;32.70
48035;BME280;33812;46.480;6.834;2023-01-29T18:17:46;94423.56;;;19.66;32.81
48035;BME280;33812;46.480;6.834;2023-01-29T18:21:52;94425.13;;;19.67;32.56
48035;BME280;33812;46.480;6.834;2023-01-29T18:25:55;94410.94;;;19.65;31.97
48035;BME280;33812;46.480;6.834;2023-01-29T18:29:57;94419.59;;;19.67;32.08
48035;BME280;33812;46.480;6.834;2023-01-29T18:33:59;94418.84;;;19.66;32.45
48035;BME280;33812;46.480;6.834;2023-01-29T18:38:02;94409.78;;;19.66;32.29
48035;BME280;33812;46.480;6.834;2023-01-29T18:42:04;94422.34;;;19.67;32.68
48035;BME280;33812;46.480;6.834;2023-01-29T18:46:06;94423.56;;;19.66;32.26
48035;BME280;33812;46.480;6.834;2023-01-29T18:50:10;94416.88;;;19.63;32.26
48035;BME280;33812;46.480;6.834;2023-01-29T18:54:14;94411.78;;;19.62;32.20
48035;BME280;33812;46.480;6.834;2023-01-29T18:58:17;94409.03;;;19.62;31.48
48035;BME280;33812;46.480;6.834;2023-01-29T19:02:19;94411.03;;;19.61;31.74
48035;BME280;33812;46.480;6.834;2023-01-29T19:06:20;94407.44;;;19.64;31.96
48035;BME280;33812;46.480;6.834;2023-01-29T19:10:24;94403.94;;;19.60;31.72
48035;BME280;33812;46.480;6.834;2023-01-29T19:14:26;94407.84;;;19.63;31.91
48035;BME280;33812;46.480;6.834;2023-01-29T19:18:28;94403.88;;;19.64;31.90
48035;BME280;33812;46.480;6.834;2023-01-29T19:22:30;94400.34;;;19.63;31.82
48035;BME280;33812;46.480;6.834;2023-01-29T19:26:33;94404.72;;;19.61;31.92
48035;BME280;33812;46.480;6.834;2023-01-29T19:30:35;94406.69;;;19.60;31.60
48035;BME280;33812;46.480;6.834;2023-01-29T19:34:37;94403.13;;;19.60;31.47
48035;BME280;33812;46.480;6.834;2023-01-29T19:38:38;94407.88;;;19.59;31.38
48035;BME280;33812;46.480;6.834;2023-01-29T19:42:42;94409.44;;;19.60;31.48
48035;BME280;33812;46.480;6.834;2023-01-29T19:46:43;94413.00;;;19.61;31.29
48035;BME280;33812;46.480;6.834;2023-01-29T19:50:58;94426.41;;;19.59;31.40
48035;BME280;33812;46.480;6.834;2023-01-29T19:55:00;94425.19;;;19.60;31.00
48035;BME280;33812;46.480;6.834;2023-01-29T19:59:04;94440.53;;;19.64;30.75
48035;BME280;33812;46.480;6.834;2023-01-29T20:03:06;94445.69;;;19.59;30.31
48035;BME280;33812;46.480;6.834;2023-01-29T20:07:09;94452.38;;;19.61;30.71
48035;BME280;33812;46.480;6.834;2023-01-29T20:11:11;94448.03;;;19.60;30.95
48035;BME280;33812;46.480;6.834;2023-01-29T20:15:14;94447.66;;;19.58;30.52
48035;BME280;33812;46.480;6.834;2023-01-29T20:19:16;94452.44;;;19.57;31.04
48035;BME280;33812;46.480;6.834;2023-01-29T20:23:19;94446.91;;;19.57;30.89
48035;BME280;33812;46.480;6.834;2023-01-29T20:27:21;94453.59;;;19.56;30.97
48035;BME280;33812;46.480;6.834;2023-01-29T20:31:25;94457.56;;;19.55;31.33
48035;BME280;33812;46.480;6.834;2023-01-29T20:35:28;94454.44;;;19.53;30.76
48035;BME280;33812;46.480;6.834;2023-01-29T20:39:30;94461.91;;;19.53;30.88
48035;BME280;33812;46.480;6.834;2023-01-29T20:43:32;94460.75;;;19.50;30.98
48035;BME280;33812;46.480;6.834;2023-01-29T20:47:41;94459.16;;;19.53;31.25
48035;BME280;33812;46.480;6.834;2023-01-29T20:51:43;94466.66;;;19.52;31.14
48035;BME280;33812;46.480;6.834;2023-01-29T20:55:45;94462.31;;;19.51;31.36
48035;BME280;33812;46.480;6.834;2023-01-29T20:59:47;94464.66;;;19.53;30.83
48035;BME280;33812;46.480;6.834;2023-01-29T21:03:50;94465.44;;;19.53;30.82
48035;BME280;33812;46.480;6.834;2023-01-29T21:07:52;94469.41;;;19.52;30.21
48035;BME280;33812;46.480;6.834;2023-01-29T21:11:54;94473.34;;;19.51;30.59
48035;BME280;33812;46.480;6.834;2023-01-29T21:15:56;94480.78;;;19.54;30.82
48035;BME280;33812;46.480;6.834;2023-01-29T21:19:59;94476.84;;;19.55;30.36
48035;BME280;33812;46.480;6.834;2023-01-29T21:24:03;94475.28;;;19.54;30.54
48035;BME280;33812;46.480;6.834;2023-01-29T21:28:05;94477.28;;;19.54;30.50
48035;BME280;33812;46.480;6.834;2023-01-29T21:32:07;94477.28;;;19.54;30.45
48035;BME280;33812;46.480;6.834;2023-01-29T21:36:11;94473.72;;;19.53;30.04
48035;BME280;33812;46.480;6.834;2023-01-29T21:40:12;94475.69;;;19.53;30.34